LHR weather

London Heathrow Airport
London, England, United Kingdom

Public forecast

Using degrees Celsius for public forecast. Weather courtesy of forecast.io.

METAR (pilot weather report)

Retrieved 2018/05/23 06:20 UTC (20 minutes ago):

EGLL 230620Z AUTO 01006KT 330V050 9999 OVC011 11/08 Q1023 NOSIG

TAF (pilot weather forecast)

Retrieved 2018/05/23 06:16 UTC (24 minutes ago):

TAF EGLL 230453Z 2306/2412 02010KT 9999 BKN012 PROB30 TEMPO 2306/2307 8000 BECMG 2307/2310 FEW045 PROB30 TEMPO 2315/2319 6000 SHRA TEMPO 2321/2409 7000 SHRA